Time;durP1;ratioP1;P1;durP2;ratioP2;P2;SDS_P1;SDS_P2;PMS_P1;PMS_P2;Temp;Humidity;BMP_temperature;BMP_pressure;BME280_temperature;BME280_humidity;BME280_pressure;Samples;Min_cycle;Max_cycle;Signal;HPM_P1;HPM_P2
2021/09/30 00:00:18;;;;;;;3.47;3.25;;;;;;;31.11;69.51;100936.88;5051930;28;70403;-38
2021/09/30 00:02:49;;;;;;;2.88;2.67;;;;;;;31.09;69.58;100941.69;5043374;28;66573;-38
2021/09/30 00:05:20;;;;;;;3.60;3.40;;;;;;;31.06;69.77;100933.97;5054195;28;70236;-38
2021/09/30 00:07:50;;;;;;;3.85;3.38;;;;;;;31.07;69.53;100943.78;5048377;28;66574;-37
2021/09/30 00:10:23;;;;;;;2.80;2.60;;;;;;;31.09;70.08;100952.53;5053932;28;70261;-39
2021/09/30 00:13:00;;;;;;;2.78;2.60;;;;;;;31.09;70.14;100955.25;5045574;28;65669;-37
2021/09/30 00:35:23;;;;;;;2.88;2.67;;;;;;;31.06;69.92;100971.91;5046166;28;65252;-38
2021/09/30 00:46:07;;;;;;;2.60;2.40;;;;;;;31.07;69.88;100989.03;5043520;28;65230;-39
2021/09/30 00:51:31;;;;;;;2.72;2.53;;;;;;;30.98;69.79;100985.75;5056471;28;66029;-38
2021/09/30 00:55:19;;;;;;;2.95;2.45;;;;;;;30.97;70.16;101000.31;5048326;28;69969;-38
2021/09/30 01:33:19;;;;;;;2.53;2.20;;;;;;;30.84;70.61;101006.69;5026555;28;68983;-38
2021/09/30 01:47:01;;;;;;;;;;;;;;;30.46;70.83;100987.66;5044717;28;65123;-38
2021/09/30 01:57:54;;;;;;;1.67;1.58;;;;;;;30.75;70.33;100985.44;5049769;28;65206;-37
2021/09/30 02:25:52;;;;;;;4.65;3.95;;;;;;;30.84;71.34;100967.91;5051838;28;69468;-37
2021/09/30 03:01:35;;;;;;;11.25;10.55;;;;;;;30.69;74.30;100974.41;5046486;28;70362;-38
2021/09/30 03:04:13;;;;;;;11.90;11.02;;;;;;;30.82;73.92;100975.44;5044969;28;66098;-38
2021/09/30 03:06:46;;;;;;;11.38;10.77;;;;;;;30.86;73.71;100966.63;5061765;27;70615;-37
2021/09/30 03:09:20;;;;;;;11.75;11.13;;;;;;;30.87;74.41;100962.91;5050834;27;66106;-37
2021/09/30 03:11:54;;;;;;;11.80;11.10;;;;;;;30.88;74.20;100959.13;5053130;28;70707;-38
2021/09/30 03:14:26;;;;;;;12.25;11.55;;;;;;;30.84;74.12;100952.50;5033458;28;66302;-38
2021/09/30 03:17:03;;;;;;;13.65;12.68;;;;;;;30.90;74.45;100948.91;5057793;28;70067;-37
2021/09/30 03:19:59;;;;;;;13.63;12.43;;;;;;;30.62;74.64;100905.94;5043171;28;65279;-39
2021/09/30 03:22:36;;;;;;;12.80;12.00;;;;;;;30.88;74.54;100933.94;5043614;28;70381;-39
2021/09/30 03:25:09;;;;;;;13.23;12.32;;;;;;;30.89;74.32;100930.16;5048290;27;65309;-37
2021/09/30 03:27:45;;;;;;;13.50;12.70;;;;;;;30.93;74.49;100928.69;5043503;28;70128;-38
2021/09/30 03:30:16;;;;;;;13.80;13.00;;;;;;;30.99;74.23;100935.09;5025245;28;66743;-37
2021/09/30 03:32:52;;;;;;;13.27;12.00;;;;;;;31.03;74.59;100939.03;5033912;28;69138;-36
2021/09/30 03:35:31;;;;;;;14.20;13.15;;;;;;;31.01;74.95;100931.13;5034237;28;66128;-37
2021/09/30 03:38:05;;;;;;;15.75;14.18;;;;;;;31.03;74.73;100920.88;5055679;28;70142;-39
2021/09/30 03:40:37;;;;;;;15.43;13.77;;;;;;;31.03;74.89;100918.16;5041032;28;64517;-38
2021/09/30 03:43:09;;;;;;;18.88;13.73;;;;;;;31.08;75.15;100921.06;5031978;28;69732;-38
2021/09/30 03:45:41;;;;;;;16.08;14.18;;;;;;;31.04;75.58;100911.72;5047135;28;65562;-38
2021/09/30 03:48:19;;;;;;;16.23;14.35;;;;;;;31.13;75.77;100915.81;5049249;28;70021;-36
2021/09/30 03:59:07;;;;;;;12.88;12.10;;;;;;;31.16;75.08;100901.81;5045570;28;70138;-36
2021/09/30 04:01:39;;;;;;;13.55;12.40;;;;;;;31.24;75.89;100905.31;5047920;28;66246;-37
2021/09/30 04:04:10;;;;;;;13.30;12.35;;;;;;;31.28;75.73;100912.75;5044714;28;70123;-38
2021/09/30 04:06:44;;;;;;;12.38;11.57;;;;;;;31.28;75.48;100909.22;5038248;28;65649;-37
2021/09/30 04:09:15;;;;;;;12.40;11.30;;;;;;;31.28;75.40;100898.38;5034267;28;70038;-36
2021/09/30 04:11:46;;;;;;;13.20;10.90;;;;;;;31.30;75.54;100896.28;5042811;28;66437;-36
2021/09/30 04:14:18;;;;;;;11.77;10.95;;;;;;;31.31;75.40;100897.94;5028217;28;70207;-39
2021/09/30 04:16:50;;;;;;;14.32;13.40;;;;;;;31.29;73.16;100894.63;5054718;28;66385;-40
2021/09/30 04:19:23;;;;;;;16.23;15.07;;;;;;;31.21;72.46;100881.38;5043608;28;70142;-38
2021/09/30 04:21:56;;;;;;;15.90;14.70;;;;;;;31.25;71.99;100882.56;5037590;28;66256;-39
2021/09/30 04:24:28;;;;;;;16.02;14.52;;;;;;;31.23;71.13;100890.06;5042969;28;69445;-40
2021/09/30 04:26:59;;;;;;;14.70;13.50;;;;;;;31.19;71.16;100888.88;5045079;28;66916;-38
2021/09/30 04:29:30;;;;;;;14.32;13.30;;;;;;;31.15;71.18;100878.50;5019906;28;70063;-39
2021/09/30 04:32:01;;;;;;;13.02;12.13;;;;;;;31.16;70.89;100874.72;5050377;28;66264;-38
2021/09/30 04:34:33;;;;;;;14.00;13.18;;;;;;;31.15;70.67;100873.06;5040289;28;70657;-38
2021/09/30 04:37:05;;;;;;;15.65;14.52;;;;;;;31.19;70.68;100861.78;5042741;28;65428;-38
2021/09/30 04:39:43;;;;;;;15.52;14.43;;;;;;;31.17;70.58;100853.84;5037853;28;69869;-40
2021/09/30 04:42:14;;;;;;;16.70;15.48;;;;;;;31.21;70.69;100856.97;5025238;28;66292;-39
2021/09/30 04:44:46;;;;;;;16.13;14.77;;;;;;;31.23;71.67;100852.13;5039734;28;69330;-38
2021/09/30 04:47:21;;;;;;;15.32;14.43;;;;;;;31.22;71.25;100842.38;5039673;28;66738;-37
2021/09/30 04:50:00;;;;;;;15.10;13.75;;;;;;;31.22;71.33;100828.81;5047958;28;69319;-38
2021/09/30 04:52:32;;;;;;;17.73;16.15;;;;;;;31.21;70.33;100832.59;5048111;28;65297;-38
2021/09/30 04:55:03;;;;;;;;;;;;;;;30.99;71.06;100846.53;5058318;27;69465;-38
2021/09/30 04:57:34;;;;;;;16.02;14.70;;;;;;;31.24;70.83;100834.84;5033362;28;65330;-38
2021/09/30 05:00:06;;;;;;;;;;;;;;;31.00;71.43;100837.34;5051110;28;69665;-38
2021/09/30 05:02:52;;;;;;;18.33;16.98;;;;;;;31.24;70.50;100829.44;5032687;27;66485;-38
2021/09/30 05:05:23;;;;;;;20.80;18.95;;;;;;;31.14;69.69;100822.63;5042144;28;69345;-38
2021/09/30 05:07:54;;;;;;;21.15;19.23;;;;;;;31.26;70.19;100835.44;5041632;28;66200;-39
2021/09/30 05:10:32;;;;;;;;;;;;;;;31.03;70.96;100826.06;5043288;28;70413;-39
2021/09/30 05:13:06;;;;;;;17.35;16.05;;;;;;;31.27;70.42;100828.97;5054408;28;65582;-38
2021/09/30 05:15:37;;;;;;;17.00;15.60;;;;;;;31.32;70.87;100826.44;5047844;28;69130;-38
2021/09/30 05:18:25;;;;;;;17.23;14.80;;;;;;;31.35;71.70;100817.84;5046089;28;65498;-37
2021/09/30 05:21:11;;;;;;;16.88;15.18;;;;;;;31.35;71.16;100807.81;5036074;28;69921;-39
2021/09/30 05:23:44;;;;;;;16.48;14.88;;;;;;;31.38;71.50;100812.00;5048621;28;66316;-39
2021/09/30 05:26:16;;;;;;;16.20;14.82;;;;;;;31.40;71.21;100812.59;5053732;28;70044;-39
2021/09/30 05:28:47;;;;;;;14.25;13.45;;;;;;;31.43;70.72;100812.16;5048429;28;66155;-39
2021/09/30 05:31:19;;;;;;;12.75;11.98;;;;;;;31.41;70.65;100808.84;5032337;28;69276;-39
2021/09/30 05:34:14;;;;;;;12.55;11.85;;;;;;;31.40;69.95;100804.47;5039652;27;65479;-38
2021/09/30 05:36:46;;;;;;;12.60;11.80;;;;;;;31.28;69.49;100774.53;5038987;28;70497;-40
2021/09/30 05:39:17;;;;;;;11.15;10.55;;;;;;;31.44;70.09;100797.53;5045409;28;66336;-38
2021/09/30 05:41:49;;;;;;;12.13;10.63;;;;;;;31.46;69.79;100792.72;5044482;28;70668;-39
2021/09/30 05:44:24;;;;;;;10.80;10.20;;;;;;;31.47;70.14;100788.94;5047295;28;66273;-38
2021/09/30 05:46:59;;;;;;;9.98;9.48;;;;;;;31.50;70.53;100777.66;5047585;28;70035;-39
2021/09/30 05:49:31;;;;;;;10.70;9.60;;;;;;;31.54;70.07;100778.03;5044932;28;66375;-38
2021/09/30 05:52:22;;;;;;;9.77;9.15;;;;;;;31.52;70.58;100764.69;5043962;28;70137;-39
2021/09/30 05:55:20;;;;;;;10.20;9.45;;;;;;;31.56;70.78;100757.75;5040107;28;65443;-38
2021/09/30 05:57:51;;;;;;;9.90;9.10;;;;;;;31.59;70.17;100754.63;5040431;28;69501;-39
2021/09/30 06:14:23;;;;;;;9.43;8.82;;;;;;;31.82;70.11;100721.34;5031805;28;70088;-38
2021/09/30 06:16:55;;;;;;;9.27;8.68;;;;;;;31.90;69.78;100701.19;5043895;28;65757;-39
2021/09/30 06:19:35;;;;;;;8.77;8.27;;;;;;;31.93;69.12;100702.63;5026506;28;70337;-39
2021/09/30 06:22:08;;;;;;;8.88;8.40;;;;;;;31.90;69.32;100684.91;5043560;28;66750;-39
2021/09/30 06:24:41;;;;;;;8.95;8.27;;;;;;;32.02;69.08;100691.22;5041868;28;70677;-38
2021/09/30 06:27:34;;;;;;;8.18;7.68;;;;;;;32.02;68.93;100683.09;5030849;28;65720;-39
2021/09/30 06:30:06;;;;;;;8.05;7.57;;;;;;;32.03;68.88;100673.88;5047366;28;69363;-39
2021/09/30 06:32:41;;;;;;;7.78;7.38;;;;;;;32.07;69.13;100673.41;5044316;28;66107;-38
2021/09/30 06:35:29;;;;;;;8.45;7.75;;;;;;;32.08;68.82;100672.34;5049745;28;70352;-38
2021/09/30 06:38:01;;;;;;;7.85;7.35;;;;;;;32.12;68.83;100665.41;5048298;28;66008;-38
2021/09/30 06:40:34;;;;;;;7.35;6.95;;;;;;;32.14;68.84;100663.28;5043621;28;70168;-38
2021/09/30 06:43:06;;;;;;;8.15;7.53;;;;;;;32.20;68.83;100663.16;5057626;28;66240;-38
2021/09/30 06:45:55;;;;;;;7.90;7.50;;;;;;;32.09;68.51;100644.97;5048398;28;70164;-38
2021/09/30 06:48:47;;;;;;;7.88;7.32;;;;;;;32.22;68.58;100649.38;5046790;28;65175;-38
2021/09/30 06:51:29;;;;;;;9.00;8.15;;;;;;;32.21;68.39;100655.88;5038490;28;69516;-39
2021/09/30 06:54:00;;;;;;;8.35;7.88;;;;;;;32.21;68.11;100642.28;5044928;28;66020;-39
2021/09/30 06:56:55;;;;;;;8.55;7.72;;;;;;;32.33;68.60;100634.97;5043120;28;70308;-38
2021/09/30 06:59:45;;;;;;;8.38;7.65;;;;;;;32.26;67.60;100628.81;5039762;28;66084;-38
2021/09/30 07:02:38;;;;;;;8.27;7.53;;;;;;;32.37;67.91;100630.72;5040376;28;68825;-39
2021/09/30 07:05:28;;;;;;;7.25;6.82;;;;;;;32.37;67.73;100625.28;5046630;28;66513;-38
2021/09/30 07:08:08;;;;;;;6.55;6.15;;;;;;;32.33;68.24;100607.81;5037865;28;70607;-38
2021/09/30 07:10:59;;;;;;;;;;;;;;;32.15;68.08;100614.22;5040941;28;65403;-38
2021/09/30 07:13:32;;;;;;;6.88;6.47;;;;;;;32.43;67.99;100608.06;5029641;28;70113;-38
2021/09/30 07:16:04;;;;;;;7.80;7.30;;;;;;;32.42;67.35;100606.41;5031820;28;65815;-38
2021/09/30 07:18:36;;;;;;;8.25;7.82;;;;;;;32.37;66.83;100613.59;5035160;28;68717;-39
2021/09/30 07:21:12;;;;;;;8.55;8.05;;;;;;;32.41;66.60;100603.94;5038896;28;67020;-39
2021/09/30 07:23:46;;;;;;;8.50;7.93;;;;;;;32.41;66.56;100599.31;5024559;28;70330;-39
2021/09/30 07:26:19;;;;;;;11.38;7.38;;;;;;;32.42;66.72;100595.53;5046234;28;65626;-39
2021/09/30 07:28:58;;;;;;;8.38;7.97;;;;;;;32.41;66.36;100599.31;5009779;28;69804;-39
2021/09/30 07:31:33;;;;;;;8.32;7.72;;;;;;;32.46;65.95;100607.63;5029706;28;67242;-39
2021/09/30 07:34:11;;;;;;;8.45;7.90;;;;;;;32.51;66.28;100606.06;5025471;28;69966;-39
2021/09/30 07:36:44;;;;;;;8.05;7.45;;;;;;;32.51;65.64;100597.91;5042425;28;65410;-39
2021/09/30 07:39:19;;;;;;;8.35;7.95;;;;;;;32.51;66.02;100581.63;5036748;28;70200;-38
2021/09/30 07:41:52;;;;;;;8.15;7.57;;;;;;;32.48;65.76;100572.06;5036763;28;66311;-38
2021/09/30 07:44:25;;;;;;;7.78;7.28;;;;;;;32.60;65.86;100577.50;5040808;28;69708;-38
2021/09/30 07:46:57;;;;;;;7.00;6.60;;;;;;;32.64;65.67;100570.50;5037980;28;66775;-38
2021/09/30 07:49:31;;;;;;;7.55;6.95;;;;;;;32.65;65.13;100567.56;5044559;28;69984;-39
2021/09/30 07:52:05;;;;;;;7.65;7.07;;;;;;;32.68;65.44;100568.97;5036028;28;66308;-39
2021/09/30 07:54:37;;;;;;;7.70;7.15;;;;;;;32.69;65.12;100567.91;5027370;28;70143;-38
2021/09/30 07:57:10;;;;;;;6.50;6.07;;;;;;;32.77;65.03;100567.53;5038491;28;66577;-38
2021/09/30 07:59:43;;;;;;;6.50;6.13;;;;;;;32.81;65.26;100565.97;5043708;28;70451;-38
2021/09/30 08:02:18;;;;;;;7.90;7.30;;;;;;;32.77;64.14;100559.38;5034105;28;65995;-38
2021/09/30 08:04:50;;;;;;;7.82;7.43;;;;;;;32.78;63.54;100547.44;5028462;28;69929;-38
2021/09/30 08:07:22;;;;;;;8.13;7.43;;;;;;;32.82;64.19;100545.91;5025429;28;67224;-39
2021/09/30 08:09:54;;;;;;;7.63;7.13;;;;;;;32.86;63.75;100538.91;5023275;28;68726;-39
2021/09/30 08:12:25;;;;;;;8.30;7.57;;;;;;;32.88;63.71;100539.50;5037470;28;66409;-39
2021/09/30 08:14:57;;;;;;;9.52;8.80;;;;;;;32.90;64.00;100536.53;5032360;28;70020;-38
2021/09/30 08:17:30;;;;;;;8.95;7.80;;;;;;;32.90;62.94;100537.38;5045258;28;65384;-38
2021/09/30 08:20:10;;;;;;;10.38;7.70;;;;;;;32.97;63.67;100536.41;5044679;28;70057;-37
2021/09/30 08:22:44;;;;;;;7.97;7.43;;;;;;;33.00;63.87;100535.94;5039162;28;64234;-38
2021/09/30 08:25:16;;;;;;;13.48;8.15;;;;;;;33.04;63.67;100531.66;5037868;28;69187;-38
2021/09/30 08:27:47;;;;;;;8.05;7.65;;;;;;;33.05;63.69;100525.16;5022128;28;65414;-38
2021/09/30 08:30:20;;;;;;;8.90;8.18;;;;;;;33.01;62.26;100518.56;5037969;28;69969;-39
2021/09/30 08:32:53;;;;;;;8.43;7.72;;;;;;;33.06;62.86;100507.78;5037549;28;65790;-36
2021/09/30 08:35:25;;;;;;;7.75;7.25;;;;;;;33.02;62.38;100512.06;4995840;28;69077;-38
2021/09/30 08:37:59;;;;;;;8.15;7.50;;;;;;;32.98;61.90;100502.72;5036394;28;65773;-38
2021/09/30 08:40:33;;;;;;;8.25;7.65;;;;;;;33.04;62.28;100523.50;5025778;28;70280;-38
2021/09/30 08:43:06;;;;;;;7.57;7.03;;;;;;;33.12;63.21;100517.69;5043536;28;66275;-37
2021/09/30 08:45:43;;;;;;;7.65;7.20;;;;;;;33.07;62.29;100495.84;5027362;28;70408;-38
2021/09/30 08:48:16;;;;;;;7.28;6.88;;;;;;;33.12;61.45;100504.91;5030395;28;66026;-38
2021/09/30 08:50:48;;;;;;;7.20;6.80;;;;;;;33.16;61.49;100513.41;5044157;28;69207;-37
2021/09/30 08:53:20;;;;;;;6.50;6.00;;;;;;;33.18;61.72;100510.44;5038736;28;66591;-38
2021/09/30 08:55:54;;;;;;;6.22;5.72;;;;;;;33.18;61.51;100524.03;5042576;28;68990;-37
2021/09/30 08:58:27;;;;;;;8.15;6.03;;;;;;;33.16;60.66;100524.28;5047486;28;66280;-39
2021/09/30 09:01:00;;;;;;;6.47;6.03;;;;;;;33.15;60.11;100556.09;5027861;28;69298;-39
2021/09/30 09:03:38;;;;;;;7.35;6.60;;;;;;;33.20;60.04;100563.47;5058600;27;66644;-38
2021/09/30 09:06:32;;;;;;;6.72;6.13;;;;;;;33.16;59.86;100565.06;5044862;28;70644;-38
2021/09/30 09:09:27;;;;;;;7.30;6.68;;;;;;;33.16;60.32;100567.78;5043742;27;65423;-38
2021/09/30 09:12:09;;;;;;;6.78;6.35;;;;;;;32.82;59.90;100513.31;5041802;28;70050;-38
2021/09/30 09:14:42;;;;;;;6.80;6.40;;;;;;;33.27;60.85;100564.16;5025461;28;66825;-38
2021/09/30 09:17:16;;;;;;;7.15;6.65;;;;;;;33.28;60.07;100565.81;5041303;28;70102;-35
2021/09/30 09:19:51;;;;;;;7.25;6.75;;;;;;;33.21;60.50;100546.13;5038483;28;66283;-38
2021/09/30 09:22:24;;;;;;;6.78;6.38;;;;;;;33.32;60.83;100561.56;5041079;28;70044;-39
2021/09/30 09:25:07;;;;;;;7.07;6.20;;;;;;;33.30;60.54;100555.53;5045636;28;66407;-39
2021/09/30 09:27:51;;;;;;;7.55;6.22;;;;;;;33.21;60.73;100540.69;5040462;28;70176;-37
2021/09/30 09:30:33;;;;;;;9.10;6.50;;;;;;;33.33;60.64;100548.78;5045595;27;66244;-37
2021/09/30 09:33:17;;;;;;;8.05;7.25;;;;;;;33.27;60.75;100553.31;5034312;28;69771;-36
2021/09/30 09:36:12;;;;;;;12.52;7.75;;;;;;;33.26;61.05;100562.50;5035898;28;66212;-39
2021/09/30 09:38:43;;;;;;;12.70;8.45;;;;;;;33.34;61.59;100564.81;5045701;28;69542;-37
2021/09/30 09:41:29;;;;;;;9.30;8.35;;;;;;;33.26;61.00;100554.34;5042701;28;66267;-36
2021/09/30 09:44:01;;;;;;;9.30;8.18;;;;;;;33.34;61.35;100555.84;5048995;28;70186;-38
2021/09/30 09:46:40;;;;;;;11.30;7.80;;;;;;;33.39;60.84;100558.66;5029853;28;66079;-38
2021/09/30 09:49:14;;;;;;;12.88;9.98;;;;;;;33.41;61.91;100558.44;5050054;28;69218;-39
2021/09/30 09:51:49;;;;;;;12.07;9.65;;;;;;;33.41;61.60;100561.16;5031289;28;66954;-38
2021/09/30 09:54:26;;;;;;;11.77;9.52;;;;;;;33.38;61.46;100566.00;5050484;28;69276;-38
2021/09/30 09:57:10;;;;;;;14.07;9.80;;;;;;;33.23;62.09;100557.56;5049861;28;66273;-37
2021/09/30 09:59:42;;;;;;;13.10;12.02;;;;;;;33.35;62.00;100555.63;5048059;28;70447;-37
2021/09/30 10:02:30;;;;;;;12.68;11.57;;;;;;;33.20;61.60;100563.47;5050870;28;66064;-37
2021/09/30 10:05:02;;;;;;;11.13;10.02;;;;;;;33.25;62.42;100566.31;5043833;28;69391;-37
2021/09/30 10:07:33;;;;;;;14.20;11.32;;;;;;;33.18;63.65;100567.50;5050913;28;66081;-38
2021/09/30 10:10:06;;;;;;;14.23;10.30;;;;;;;33.21;63.57;100575.19;5046753;27;70146;-37
2021/09/30 10:12:37;;;;;;;10.90;10.07;;;;;;;33.02;63.52;100567.25;5048888;28;66355;-38
2021/09/30 10:15:09;;;;;;;10.68;9.82;;;;;;;33.08;63.71;100589.91;5048082;28;70690;-39
2021/09/30 10:17:40;;;;;;;12.27;9.85;;;;;;;33.06;63.51;100592.03;5050990;27;65806;-39
2021/09/30 10:20:12;;;;;;;9.63;8.77;;;;;;;32.89;63.51;100571.03;5046965;28;69399;-39
2021/09/30 10:22:49;;;;;;;;;;;;;;;32.68;64.57;100588.81;5041120;28;66389;-38
2021/09/30 10:25:21;;;;;;;10.15;9.23;;;;;;;32.92;63.74;100600.44;5048402;28;70166;-38
2021/09/30 10:27:56;;;;;;;15.73;8.90;;;;;;;33.01;63.92;100608.22;5055112;28;65607;-38
2021/09/30 10:30:50;;;;;;;8.70;7.88;;;;;;;33.03;64.01;100606.94;5049297;28;70304;-38
2021/09/30 10:33:40;;;;;;;9.68;8.25;;;;;;;32.96;64.00;100599.94;5046980;28;65797;-38
2021/09/30 10:36:48;;;;;;;10.40;9.45;;;;;;;32.97;65.55;100621.44;5044121;28;70190;-39
2021/09/30 10:39:22;;;;;;;15.70;8.52;;;;;;;33.13;64.85;100617.19;5008755;28;66123;-39
2021/09/30 10:41:56;;;;;;;14.65;8.32;;;;;;;32.87;64.91;100575.88;5044154;27;70577;-38
2021/09/30 10:44:34;;;;;;;8.65;8.07;;;;;;;33.00;64.75;100595.72;5038277;28;66492;-38
2021/09/30 10:47:06;;;;;;;9.40;8.80;;;;;;;33.20;64.76;100623.28;5043670;28;70725;-38
2021/09/30 10:49:42;;;;;;;;;;;;;;;32.92;65.74;100633.03;5040034;28;66704;-38
2021/09/30 10:52:13;;;;;;;8.93;8.07;;;;;;;33.07;64.74;100612.69;5044266;27;69706;-37
2021/09/30 10:55:10;;;;;;;10.40;8.95;;;;;;;32.92;64.62;100595.00;5040134;28;65283;-38
2021/09/30 10:57:52;;;;;;;8.85;8.15;;;;;;;33.16;64.91;100643.88;5038967;28;69982;-38
2021/09/30 11:00:23;;;;;;;9.65;8.65;;;;;;;33.18;64.33;100652.59;5038932;28;65759;-38
2021/09/30 11:03:09;;;;;;;9.32;8.68;;;;;;;33.15;64.49;100659.38;5038977;28;69806;-38
2021/09/30 11:06:21;;;;;;;10.60;9.00;;;;;;;33.06;64.48;100654.53;5042982;28;66460;-38
2021/09/30 11:09:21;;;;;;;8.68;8.10;;;;;;;33.06;64.53;100655.34;5042249;28;70649;-38
2021/09/30 11:12:06;;;;;;;9.63;8.93;;;;;;;33.15;64.35;100675.66;5040216;28;65676;-38
2021/09/30 11:14:54;;;;;;;9.48;8.77;;;;;;;33.03;64.35;100655.00;5040215;28;69360;-38
2021/09/30 11:17:39;;;;;;;9.30;8.63;;;;;;;32.74;64.22;100614.19;5042808;28;65942;-38
2021/09/30 11:20:36;;;;;;;9.57;8.68;;;;;;;33.00;64.52;100678.06;5044186;28;70331;-38
2021/09/30 11:23:45;;;;;;;9.07;8.57;;;;;;;32.98;64.39;100673.91;5040963;28;65898;-37
2021/09/30 11:26:16;;;;;;;9.32;8.63;;;;;;;33.07;64.41;100683.34;5042327;28;69911;-38
2021/09/30 11:28:49;;;;;;;9.13;8.53;;;;;;;33.06;64.25;100698.00;5046315;28;66938;-38
2021/09/30 11:31:25;;;;;;;9.50;8.80;;;;;;;32.73;64.88;100685.84;5042448;28;70595;-38
2021/09/30 11:34:01;;;;;;;9.45;8.75;;;;;;;32.54;65.51;100670.75;5037406;28;66271;-37
2021/09/30 11:36:38;;;;;;;8.82;8.23;;;;;;;32.40;65.65;100667.41;5018737;28;69965;-37
2021/09/30 11:39:09;;;;;;;9.48;8.77;;;;;;;32.62;65.82;100730.97;5050383;28;65814;-38
2021/09/30 11:41:43;;;;;;;9.93;9.33;;;;;;;32.54;66.58;100739.50;5038898;28;69028;-38
2021/09/30 11:44:15;;;;;;;12.25;9.82;;;;;;;32.55;66.84;100745.75;5037346;28;66124;-37
2021/09/30 11:46:55;;;;;;;9.55;8.55;;;;;;;32.25;66.93;100708.59;5025206;28;70799;-36
2021/09/30 11:49:27;;;;;;;9.85;9.25;;;;;;;32.21;66.87;100712.84;5042528;28;66320;-37
2021/09/30 11:51:59;;;;;;;9.20;8.70;;;;;;;32.49;66.90;100767.34;5040627;28;70783;-39
2021/09/30 11:54:37;;;;;;;10.48;9.65;;;;;;;32.45;66.97;100762.56;5041971;28;66074;-37
2021/09/30 11:57:22;;;;;;;9.18;8.57;;;;;;;32.43;67.01;100764.69;5050101;28;68929;-37
2021/09/30 12:00:14;;;;;;;9.68;9.00;;;;;;;32.37;67.24;100769.16;5039965;28;67069;-38
2021/09/30 12:02:57;;;;;;;9.40;8.75;;;;;;;32.10;66.90;100721.81;5044319;28;70208;-39
2021/09/30 12:05:31;;;;;;;8.50;8.00;;;;;;;32.18;67.27;100740.44;5039507;28;66032;-43
2021/09/30 12:08:05;;;;;;;12.85;7.80;;;;;;;32.44;66.88;100788.88;5047602;28;70213;-39
2021/09/30 12:10:38;;;;;;;10.00;8.93;;;;;;;32.33;66.61;100776.13;5045751;28;65827;-38
2021/09/30 12:13:20;;;;;;;8.45;7.80;;;;;;;32.39;67.04;100799.63;5045477;28;69464;-37
2021/09/30 12:16:03;;;;;;;8.40;7.80;;;;;;;32.40;67.34;100793.16;5049278;28;65956;-38
2021/09/30 12:18:35;;;;;;;8.48;7.97;;;;;;;32.37;67.83;100796.31;5028687;28;70101;-37
2021/09/30 12:21:07;;;;;;;8.05;7.45;;;;;;;32.35;68.11;100790.28;5045195;28;65943;-38
2021/09/30 12:23:39;;;;;;;9.18;7.47;;;;;;;32.41;68.14;100804.81;5025710;28;69609;-38
2021/09/30 12:26:15;;;;;;;9.52;7.72;;;;;;;32.10;68.60;100762.50;5044796;28;66051;-38
2021/09/30 12:28:47;;;;;;;8.45;7.75;;;;;;;32.44;69.27;100816.03;5043330;28;69507;-37
2021/09/30 12:31:19;;;;;;;;;;;;;;;32.25;70.48;100822.59;5047500;28;66256;-38
2021/09/30 12:33:52;;;;;;;8.80;8.10;;;;;;;32.42;69.50;100820.88;5046834;28;71518;-37
2021/09/30 12:36:25;;;;;;;7.85;7.22;;;;;;;32.47;70.25;100828.34;5027144;28;66178;-38
2021/09/30 12:39:03;;;;;;;7.65;7.03;;;;;;;32.18;70.29;100778.44;5032949;28;70249;-38
2021/09/30 12:41:35;;;;;;;7.35;6.75;;;;;;;32.43;70.80;100825.25;5046296;28;66461;-38
2021/09/30 12:44:14;;;;;;;6.72;6.22;;;;;;;32.42;70.91;100844.47;5043273;28;70267;-38
2021/09/30 12:46:50;;;;;;;8.52;6.43;;;;;;;32.34;70.96;100825.81;5041585;28;65191;-38
2021/09/30 12:49:22;;;;;;;7.82;7.03;;;;;;;32.39;71.58;100834.09;5063049;27;70195;-39
2021/09/30 12:51:54;;;;;;;7.00;6.30;;;;;;;32.39;71.68;100845.78;5048396;28;66382;-38
2021/09/30 12:54:27;;;;;;;6.30;5.90;;;;;;;32.40;71.56;100841.16;5044646;28;70754;-39
2021/09/30 12:57:10;;;;;;;7.57;6.68;;;;;;;32.27;70.53;100842.19;5041831;28;66432;-39
2021/09/30 13:00:07;;;;;;;7.63;6.35;;;;;;;32.22;70.20;100840.16;5046927;28;69882;-38
2021/09/30 13:02:41;;;;;;;6.97;6.47;;;;;;;32.27;69.75;100863.91;5045908;28;66400;-39
2021/09/30 13:05:13;;;;;;;6.18;5.78;;;;;;;32.25;69.40;100864.13;5049417;28;69527;-38
2021/09/30 13:07:48;;;;;;;6.93;6.45;;;;;;;32.24;69.17;100869.81;5049197;28;66383;-40
2021/09/30 13:10:34;;;;;;;6.78;6.22;;;;;;;32.18;69.17;100868.00;5061958;27;70147;-40
2021/09/30 13:13:18;;;;;;;;;;;;;;;31.95;69.90;100872.25;5024343;28;66801;-37
2021/09/30 13:15:52;;;;;;;6.85;6.35;;;;;;;32.15;69.42;100871.16;5041649;28;70074;-39
2021/09/30 13:18:27;;;;;;;9.82;6.20;;;;;;;32.12;69.29;100871.63;5009248;28;65437;-39
2021/09/30 13:21:07;;;;;;;6.40;5.97;;;;;;;32.14;69.42;100885.81;5020750;28;70869;-39
2021/09/30 13:23:43;;;;;;;9.75;7.03;;;;;;;32.17;69.93;100882.63;5032782;28;66249;-38
2021/09/30 13:26:14;;;;;;;12.98;6.60;;;;;;;32.15;70.21;100887.44;5043509;28;68856;-37
2021/09/30 13:28:48;;;;;;;7.38;6.75;;;;;;;32.15;70.28;100882.03;5024896;28;66501;-37
2021/09/30 13:31:21;;;;;;;8.27;7.57;;;;;;;32.13;69.97;100886.88;5012032;28;70430;-38
2021/09/30 13:33:54;;;;;;;12.30;7.57;;;;;;;32.13;69.67;100890.41;5027476;28;65938;-38
2021/09/30 13:36:27;;;;;;;8.35;7.63;;;;;;;32.07;69.79;100877.75;5041284;27;70173;-38
2021/09/30 13:38:58;;;;;;;;;;;;;;;31.87;70.57;100891.50;5043857;28;65615;-38
2021/09/30 13:41:30;;;;;;;8.88;7.85;;;;;;;32.11;69.43;100897.13;5041095;28;69800;-37
2021/09/30 13:44:04;;;;;;;9.50;7.70;;;;;;;32.11;69.10;100897.94;5050772;28;65301;-38
2021/09/30 13:46:37;;;;;;;8.18;7.57;;;;;;;32.08;68.64;100897.56;5044540;28;70425;-38
2021/09/30 13:49:12;;;;;;;10.32;6.40;;;;;;;32.03;68.36;100901.78;5039262;28;66185;-37
2021/09/30 13:51:44;;;;;;;8.80;7.15;;;;;;;32.04;68.12;100908.88;5043713;28;71260;-37
2021/09/30 13:54:17;;;;;;;9.32;7.57;;;;;;;32.03;67.68;100909.09;5048458;28;65330;-37
2021/09/30 13:56:49;;;;;;;8.15;7.55;;;;;;;31.97;67.74;100908.13;5043344;28;70169;-38
2021/09/30 13:59:20;;;;;;;6.97;6.40;;;;;;;31.93;67.74;100912.38;5041165;28;65560;-38
2021/09/30 14:02:13;;;;;;;8.10;7.28;;;;;;;31.91;67.84;100908.19;5043694;28;70174;-39
2021/09/30 14:04:44;;;;;;;9.32;7.75;;;;;;;31.95;67.79;100910.22;5039295;28;65588;-37
2021/09/30 14:07:16;;;;;;;7.72;7.20;;;;;;;31.95;67.82;100917.56;5047271;28;69956;-38
2021/09/30 14:09:47;;;;;;;;;;;;;;;31.73;67.49;100928.84;5052283;28;66251;-37
2021/09/30 14:12:19;;;;;;;8.00;7.20;;;;;;;31.96;67.33;100917.34;5048295;28;70220;-38
2021/09/30 14:14:50;;;;;;;;;;;;;;;31.78;67.08;100936.28;5051089;28;66472;-38
2021/09/30 14:17:22;;;;;;;8.10;7.43;;;;;;;32.04;67.29;100938.75;5035291;28;70705;-38
2021/09/30 14:19:55;;;;;;;8.02;7.35;;;;;;;32.12;66.77;100931.31;5043530;27;66248;-39
2021/09/30 14:22:28;;;;;;;8.45;7.95;;;;;;;32.14;66.41;100929.22;5040949;28;70164;-37
2021/09/30 14:25:01;;;;;;;7.95;7.25;;;;;;;32.15;66.44;100933.59;5044552;28;65730;-38
2021/09/30 14:27:34;;;;;;;7.30;6.78;;;;;;;32.15;66.52;100922.72;5028452;28;70160;-36
2021/09/30 14:30:10;;;;;;;7.63;7.13;;;;;;;32.15;66.26;100920.00;5041084;28;66437;-36
2021/09/30 14:33:01;;;;;;;8.63;7.78;;;;;;;32.12;66.24;100921.28;5048331;28;69626;-38
2021/09/30 14:35:34;;;;;;;7.82;7.20;;;;;;;32.15;66.31;100931.72;5041681;28;65711;-38
2021/09/30 14:38:08;;;;;;;7.88;7.28;;;;;;;32.16;66.39;100932.53;5045986;28;69759;-38
2021/09/30 14:40:48;;;;;;;8.10;7.40;;;;;;;32.12;65.99;100920.47;5040803;28;66060;-38
2021/09/30 14:43:29;;;;;;;6.88;6.47;;;;;;;32.15;65.24;100937.16;5044025;28;70423;-38
2021/09/30 14:46:00;;;;;;;7.55;7.05;;;;;;;32.15;65.67;100930.88;5041346;28;66462;-37
2021/09/30 14:48:37;;;;;;;7.28;6.78;;;;;;;32.15;65.66;100922.72;5031363;28;71582;-37
2021/09/30 14:51:11;;;;;;;7.68;7.13;;;;;;;32.15;65.73;100925.44;5042346;28;66380;-37
2021/09/30 14:53:43;;;;;;;7.10;6.57;;;;;;;32.12;65.73;100920.47;5044462;28;70471;-39